createdAt,value
2019-04-07T00:02:01.014Z,86.30
2019-04-07T00:04:28.439Z,86.50
2019-04-07T00:06:56.057Z,86.70
2019-04-07T00:09:23.449Z,87.50
2019-04-07T00:11:50.821Z,87.80
2019-04-07T00:14:18.311Z,88.40
2019-04-07T00:16:45.695Z,89.50
2019-04-07T00:19:13.650Z,89.60
2019-04-07T00:21:41.066Z,89.20
2019-04-07T00:24:09.170Z,89.10
2019-04-07T00:26:36.707Z,89.50
2019-04-07T00:29:04.274Z,89.70
2019-04-07T00:31:32.115Z,89.80
2019-04-07T00:33:59.541Z,90.00
2019-04-07T00:36:26.944Z,90.00
2019-04-07T00:38:55.375Z,89.80
2019-04-07T00:41:23.244Z,89.30
2019-04-07T00:43:50.758Z,89.60
2019-04-07T00:46:19.047Z,89.70
2019-04-07T00:48:46.554Z,89.50
2019-04-07T00:51:14.024Z,89.80
2019-04-07T00:53:41.747Z,89.80
2019-04-07T00:56:09.386Z,90.40
2019-04-07T00:58:36.953Z,90.70
2019-04-07T01:01:05.646Z,90.40
2019-04-07T01:03:33.670Z,90.30
2019-04-07T01:06:01.215Z,90.60
2019-04-07T01:08:29.339Z,90.80
2019-04-07T01:10:56.988Z,91.00
2019-04-07T01:13:24.749Z,91.00
2019-04-07T01:15:52.296Z,90.90
2019-04-07T01:18:20.645Z,90.90
2019-04-07T01:20:48.407Z,90.80
2019-04-07T01:23:16.012Z,90.60
2019-04-07T01:25:43.538Z,90.20
2019-04-07T01:28:11.024Z,89.80
2019-04-07T01:30:38.531Z,90.00
2019-04-07T01:33:06.434Z,90.00
2019-04-07T01:35:44.424Z,90.00
2019-04-07T01:38:03.178Z,90.00
2019-04-07T01:40:31.078Z,90.40
2019-04-07T01:43:33.054Z,90.40
2019-04-07T01:46:19.134Z,90.40
2019-04-07T01:48:57.633Z,90.50
2019-04-07T01:51:53.214Z,90.50
2019-04-07T01:54:39.518Z,90.60
2019-04-07T01:57:25.723Z,90.80
2019-04-07T02:00:28.029Z,90.80
2019-04-07T02:03:03.454Z,90.80
2019-04-07T02:05:57.876Z,90.90
2019-04-07T02:08:35.350Z,91.00
2019-04-07T02:11:28.750Z,90.90
2019-04-07T02:14:17.671Z,91.00
2019-04-07T02:16:49.979Z,91.00
2019-04-07T02:19:24.486Z,90.80
2019-04-07T02:21:59.324Z,90.90
2019-04-07T02:24:47.012Z,91.10
2019-04-07T02:27:33.893Z,91.20
2019-04-07T02:30:33.134Z,91.20
2019-04-07T02:33:33.106Z,91.30
2019-04-07T02:36:26.153Z,91.20
2019-04-07T02:39:07.172Z,91.20
2019-04-07T02:41:45.011Z,91.40
2019-04-07T02:44:43.466Z,91.40
2019-04-07T02:47:28.009Z,91.50
2019-04-07T02:50:20.763Z,91.30
2019-04-07T02:53:07.867Z,91.30
2019-04-07T02:55:45.427Z,91.30
2019-04-07T02:58:27.210Z,91.20
2019-04-07T03:01:13.684Z,91.10
2019-04-07T03:04:01.809Z,91.10
2019-04-07T03:06:52.868Z,91.10
2019-04-07T03:09:25.989Z,91.20
2019-04-07T03:12:15.128Z,91.20
2019-04-07T03:15:01.184Z,91.30
2019-04-07T03:17:37.463Z,91.20
2019-04-07T03:20:25.078Z,91.20
2019-04-07T03:23:16.173Z,91.70
2019-04-07T03:26:07.963Z,91.30
2019-04-07T03:29:03.434Z,91.20
2019-04-07T03:31:41.085Z,91.30
2019-04-07T03:34:32.588Z,91.40
2019-04-07T03:37:34.402Z,91.50
2019-04-07T03:40:11.535Z,91.40
2019-04-07T03:43:01.590Z,91.30
2019-04-07T03:45:41.319Z,91.40
2019-04-07T03:48:31.743Z,91.20
2019-04-07T03:51:22.348Z,91.40
2019-04-07T03:54:18.374Z,91.40
2019-04-07T03:56:53.205Z,91.30
2019-04-07T03:59:51.901Z,91.30
2019-04-07T04:02:37.946Z,91.10
2019-04-07T04:05:20.749Z,91.10
2019-04-07T04:08:07.755Z,91.10
2019-04-07T04:10:41.039Z,91.20
2019-04-07T04:13:18.404Z,91.20
2019-04-07T04:16:14.564Z,91.30
2019-04-07T04:18:42.662Z,91.40
2019-04-07T04:21:11.192Z,91.50
2019-04-07T04:23:41.563Z,91.40
2019-04-07T04:26:08.316Z,91.40
2019-04-07T04:28:36.814Z,91.30
2019-04-07T04:31:04.674Z,91.40
2019-04-07T04:33:33.009Z,91.40
2019-04-07T04:36:00.668Z,91.50
2019-04-07T04:38:28.365Z,91.60
2019-04-07T04:40:55.821Z,91.60
2019-04-07T04:43:23.462Z,91.60
2019-04-07T04:45:50.940Z,91.60
2019-04-07T04:48:19.539Z,91.70
2019-04-07T04:50:47.467Z,91.60
2019-04-07T04:53:15.024Z,91.60
2019-04-07T04:55:42.579Z,91.70
2019-04-07T04:58:11.126Z,91.70
2019-04-07T05:00:38.831Z,91.80
2019-04-07T05:03:06.236Z,91.80
2019-04-07T05:05:34.691Z,92.00
2019-04-07T05:08:04.452Z,92.00
2019-04-07T05:10:31.314Z,92.00
2019-04-07T05:12:58.935Z,92.00
2019-04-07T05:15:26.735Z,91.90
2019-04-07T05:17:54.808Z,92.10
2019-04-07T05:20:22.940Z,92.00
2019-04-07T05:22:51.214Z,92.00
2019-04-07T05:25:18.647Z,92.00
2019-04-07T05:27:46.066Z,91.90
2019-04-07T05:30:13.669Z,91.90
2019-04-07T05:32:41.734Z,91.90
2019-04-07T05:35:09.186Z,92.20
2019-04-07T05:37:36.495Z,92.00
2019-04-07T05:40:04.789Z,92.00
2019-04-07T05:42:32.839Z,92.10
2019-04-07T05:45:00.600Z,92.10
2019-04-07T05:47:28.060Z,92.00
2019-04-07T05:49:58.806Z,91.90
2019-04-07T05:52:24.659Z,92.00
2019-04-07T05:54:52.510Z,91.90
2019-04-07T05:57:20.638Z,91.80
2019-04-07T05:59:48.749Z,91.80
2019-04-07T06:02:16.736Z,91.90
2019-04-07T06:04:46.532Z,91.90
2019-04-07T06:07:13.783Z,92.00
2019-04-07T06:09:41.451Z,92.00
2019-04-07T06:12:09.825Z,91.90
2019-04-07T06:14:38.020Z,91.80
2019-04-07T06:17:06.402Z,91.60
2019-04-07T06:19:37.518Z,91.50
2019-04-07T06:22:03.457Z,91.40
2019-04-07T06:24:33.320Z,91.40
2019-04-07T06:27:00.801Z,91.30
2019-04-07T06:29:28.900Z,91.20
2019-04-07T06:31:57.723Z,91.30
2019-04-07T06:34:25.787Z,91.10
2019-04-07T06:36:55.520Z,91.20
2019-04-07T06:39:23.185Z,91.10
2019-04-07T06:41:51.275Z,91.00
2019-04-07T06:44:21.370Z,91.50
2019-04-07T06:47:05.336Z,91.10
2019-04-07T06:49:42.764Z,91.10
2019-04-07T06:52:35.486Z,90.80
2019-04-07T06:55:20.128Z,90.60
2019-04-07T06:58:08.082Z,90.00
2019-04-07T07:01:03.046Z,90.30
2019-04-07T07:03:51.407Z,90.10
2019-04-07T07:06:37.403Z,90.10
2019-04-07T07:09:27.712Z,90.40
2019-04-07T07:12:28.278Z,89.90
2019-04-07T07:15:03.137Z,89.80
2019-04-07T07:17:35.651Z,90.10
2019-04-07T07:20:21.769Z,90.00
2019-04-07T07:22:54.963Z,90.00
2019-04-07T07:25:22.589Z,89.90
2019-04-07T07:27:50.007Z,88.70
2019-04-07T07:30:19.047Z,88.90
2019-04-07T07:32:47.252Z,88.50
2019-04-07T07:35:15.530Z,88.00
2019-04-07T07:37:44.541Z,87.60
2019-04-07T07:40:12.377Z,87.70
2019-04-07T07:42:42.010Z,87.50
2019-04-07T07:45:12.873Z,86.70
2019-04-07T07:47:38.775Z,86.70
2019-04-07T07:50:07.605Z,86.50
2019-04-07T07:52:35.489Z,86.30
2019-04-07T07:55:03.839Z,86.70
2019-04-07T07:57:31.750Z,86.10
2019-04-07T08:00:00.283Z,86.00
2019-04-07T08:02:30.614Z,85.20
2019-04-07T08:04:59.122Z,84.80
2019-04-07T08:07:26.866Z,85.30
2019-04-07T08:09:55.791Z,85.60
2019-04-07T08:12:23.807Z,84.00
2019-04-07T08:14:55.075Z,84.10
2019-04-07T08:17:20.532Z,84.50
2019-04-07T08:19:48.072Z,83.40
2019-04-07T08:22:26.644Z,82.70
2019-04-07T08:24:45.486Z,83.30
2019-04-07T08:27:13.039Z,83.60
2019-04-07T08:29:41.137Z,84.30
2019-04-07T08:32:08.670Z,83.90
2019-04-07T08:34:36.226Z,83.40
2019-04-07T08:37:03.795Z,83.90
2019-04-07T08:39:33.591Z,82.60
2019-04-07T08:42:01.167Z,82.20
2019-04-07T08:44:30.435Z,81.90
2019-04-07T08:46:58.925Z,81.70
2019-04-07T08:49:26.432Z,81.00
2019-04-07T08:51:53.990Z,81.70
2019-04-07T08:54:21.481Z,81.30
2019-04-07T08:56:49.000Z,81.10
2019-04-07T08:59:17.226Z,80.10
2019-04-07T09:01:44.825Z,80.00
2019-04-07T09:04:15.108Z,79.00
2019-04-07T09:06:41.437Z,79.30
2019-04-07T09:09:09.086Z,79.20
2019-04-07T09:11:39.111Z,79.60
2019-04-07T09:14:06.447Z,78.50
2019-04-07T09:16:58.176Z,77.80
2019-04-07T09:19:44.810Z,77.30
2019-04-07T09:22:43.506Z,76.90
2019-04-07T09:25:32.024Z,77.00
2019-04-07T09:28:21.199Z,76.70
2019-04-07T09:31:04.440Z,76.50
2019-04-07T09:33:51.831Z,74.40
2019-04-07T09:36:38.937Z,75.30
2019-04-07T09:39:25.434Z,75.10
2019-04-07T09:42:25.846Z,75.10
2019-04-07T09:45:25.437Z,74.70
2019-04-07T09:48:11.322Z,74.40
2019-04-07T09:50:54.462Z,73.60
2019-04-07T09:53:44.829Z,74.30
2019-04-07T09:56:32.920Z,72.80
2019-04-07T09:59:15.122Z,73.30
2019-04-07T10:02:11.502Z,73.70
2019-04-07T10:05:02.667Z,73.00
2019-04-07T10:07:58.993Z,72.40
2019-04-07T10:10:45.962Z,71.70
2019-04-07T10:13:23.080Z,72.10
2019-04-07T10:16:08.972Z,71.50
2019-04-07T10:19:14.182Z,72.30
2019-04-07T10:22:03.855Z,71.10
2019-04-07T10:24:57.098Z,70.30
2019-04-07T10:27:43.067Z,71.40
2019-04-07T10:30:17.855Z,71.20
2019-04-07T10:33:07.775Z,68.70
2019-04-07T10:35:49.569Z,69.80
2019-04-07T10:38:36.383Z,68.50
2019-04-07T10:41:19.671Z,69.00
2019-04-07T10:44:02.087Z,68.50
2019-04-07T10:46:40.917Z,68.90
2019-04-07T10:49:31.313Z,68.30
2019-04-07T10:52:09.228Z,68.60
2019-04-07T10:54:42.290Z,67.50
2019-04-07T10:57:38.066Z,67.80
2019-04-07T11:00:19.416Z,68.50
2019-04-07T11:03:06.481Z,66.60
2019-04-07T11:06:12.680Z,66.30
2019-04-07T11:09:14.667Z,63.70
2019-04-07T11:11:54.830Z,64.30
2019-04-07T11:15:00.095Z,66.50
2019-04-07T11:17:50.582Z,65.50
2019-04-07T11:20:29.955Z,63.10
2019-04-07T11:23:03.024Z,62.50
2019-04-07T11:25:36.171Z,61.00
2019-04-07T11:28:27.428Z,60.60
2019-04-07T11:31:25.582Z,60.10
2019-04-07T11:34:12.957Z,62.00
2019-04-07T11:36:58.562Z,57.30
2019-04-07T11:39:48.029Z,56.10
2019-04-07T11:42:28.462Z,58.10
2019-04-07T11:45:14.939Z,57.40
2019-04-07T11:47:51.151Z,55.90
2019-04-07T11:50:36.844Z,55.80
2019-04-07T11:53:26.254Z,55.00
2019-04-07T11:56:11.691Z,55.00
2019-04-07T11:58:58.943Z,54.80
2019-04-07T12:01:47.941Z,52.80
2019-04-07T12:04:50.039Z,53.60
2019-04-07T12:07:52.980Z,52.30
2019-04-07T12:10:54.609Z,52.30
2019-04-07T12:13:34.896Z,50.70
2019-04-07T12:16:20.598Z,51.20
2019-04-07T12:19:09.445Z,51.00
2019-04-07T12:21:54.739Z,51.60
2019-04-07T12:24:47.963Z,51.60
2019-04-07T12:27:34.504Z,51.10
2019-04-07T12:30:07.910Z,50.10
2019-04-07T12:32:55.098Z,49.50
2019-04-07T12:35:42.923Z,49.20
2019-04-07T12:38:45.111Z,48.40
2019-04-07T12:41:33.054Z,49.20
2019-04-07T12:44:23.342Z,48.40
2019-04-07T12:47:07.106Z,47.70
2019-04-07T12:49:45.514Z,48.00
2019-04-07T12:52:29.987Z,48.40
2019-04-07T12:55:15.373Z,47.70
2019-04-07T12:58:01.026Z,47.70
2019-04-07T13:00:59.497Z,46.20
2019-04-07T13:03:42.695Z,46.60
2019-04-07T13:06:20.872Z,48.00
2019-04-07T13:09:07.066Z,47.70
2019-04-07T13:12:12.922Z,47.20
2019-04-07T13:14:56.683Z,46.30
2019-04-07T13:17:43.605Z,47.10
2019-04-07T13:20:21.518Z,48.10
2019-04-07T13:22:57.030Z,47.50
2019-04-07T13:25:42.831Z,47.60
2019-04-07T13:28:22.793Z,48.10
2019-04-07T13:31:15.814Z,49.60
2019-04-07T13:34:02.213Z,48.90
2019-04-07T13:36:39.548Z,48.90
2019-04-07T13:39:26.063Z,48.60
2019-04-07T13:42:07.748Z,50.00
2019-04-07T13:44:54.787Z,49.50
2019-04-07T13:47:47.061Z,50.30
2019-04-07T13:50:36.011Z,50.20
2019-04-07T13:53:26.995Z,49.70
2019-04-07T13:56:08.306Z,48.70
2019-04-07T13:58:49.278Z,48.20
2019-04-07T14:01:48.107Z,49.10
2019-04-07T14:04:46.766Z,49.60
2019-04-07T14:07:35.194Z,48.70
2019-04-07T14:10:20.243Z,48.70
2019-04-07T14:12:59.469Z,48.70
2019-04-07T14:15:40.917Z,48.10
2019-04-07T14:18:21.231Z,48.10
2019-04-07T14:20:59.483Z,47.50
2019-04-07T14:23:45.118Z,46.90
2019-04-07T14:26:19.051Z,46.50
2019-04-07T14:29:12.998Z,47.10
2019-04-07T14:31:59.435Z,46.40
2019-04-07T14:34:52.961Z,46.30
2019-04-07T14:37:59.327Z,46.90
2019-04-07T14:40:31.646Z,46.90
2019-04-07T14:43:14.644Z,46.10
2019-04-07T14:46:01.165Z,44.50
2019-04-07T14:48:51.312Z,44.00
2019-04-07T14:51:44.964Z,44.70
2019-04-07T14:54:37.822Z,45.80
2019-04-07T14:57:19.963Z,44.60
2019-04-07T15:00:26.325Z,44.50
2019-04-07T15:02:54.347Z,44.90
2019-04-07T15:05:25.558Z,43.70
2019-04-07T15:08:16.296Z,44.70
2019-04-07T15:10:50.239Z,45.50
2019-04-07T15:13:23.896Z,44.50
2019-04-07T15:15:51.342Z,44.00
2019-04-07T15:18:19.728Z,43.80
2019-04-07T15:20:47.378Z,43.50
2019-04-07T15:23:14.727Z,44.20
2019-04-07T15:25:44.184Z,43.30
2019-04-07T15:28:11.481Z,43.10
2019-04-07T15:30:39.567Z,43.80
2019-04-07T15:33:07.330Z,43.70
2019-04-07T15:35:35.233Z,44.60
2019-04-07T15:38:03.274Z,44.40
2019-04-07T15:40:33.976Z,44.60
2019-04-07T15:43:03.136Z,43.90
2019-04-07T15:45:29.804Z,43.60
2019-04-07T15:47:57.883Z,43.50
2019-04-07T15:50:29.234Z,44.00
2019-04-07T15:52:56.367Z,43.30
2019-04-07T15:55:26.383Z,43.60
2019-04-07T15:57:54.989Z,43.80
2019-04-07T16:00:22.493Z,43.80
2019-04-07T16:02:52.089Z,44.00
2019-04-07T16:05:19.175Z,43.70
2019-04-07T16:07:46.735Z,43.40
2019-04-07T16:10:14.767Z,44.50
2019-04-07T16:12:46.512Z,43.60
2019-04-07T16:15:15.869Z,45.00
2019-04-07T16:17:42.047Z,45.30
2019-04-07T16:20:19.794Z,45.50
2019-04-07T16:22:40.165Z,46.00
2019-04-07T16:25:08.606Z,45.60
2019-04-07T16:27:38.218Z,48.90
2019-04-07T16:30:07.423Z,51.50
2019-04-07T16:32:34.958Z,52.90
2019-04-07T16:35:02.415Z,53.20
2019-04-07T16:37:31.065Z,54.00
2019-04-07T16:39:59.011Z,54.90
2019-04-07T16:42:26.563Z,55.30
2019-04-07T16:44:54.838Z,55.70
2019-04-07T16:47:25.641Z,56.70
2019-04-07T16:49:52.406Z,57.50
2019-04-07T16:52:20.444Z,58.00
2019-04-07T16:54:47.952Z,59.10
2019-04-07T16:57:15.449Z,59.30
2019-04-07T16:59:43.549Z,60.00
2019-04-07T17:02:13.354Z,60.80
2019-04-07T17:04:41.020Z,61.30
2019-04-07T17:07:12.508Z,62.30
2019-04-07T17:09:37.714Z,63.20
2019-04-07T17:12:05.099Z,63.20
2019-04-07T17:14:35.960Z,62.90
2019-04-07T17:17:01.731Z,64.00
2019-04-07T17:19:30.019Z,64.70
2019-04-07T17:21:59.377Z,65.70
2019-04-07T17:24:29.329Z,65.10
2019-04-07T17:26:56.244Z,63.60
2019-04-07T17:29:24.616Z,64.80
2019-04-07T17:31:52.130Z,64.30
2019-04-07T17:34:20.445Z,63.90
2019-04-07T17:36:49.852Z,64.50
2019-04-07T17:39:46.124Z,65.10
2019-04-07T17:42:14.475Z,65.60
2019-04-07T17:45:07.920Z,66.30
2019-04-07T17:48:13.541Z,67.00
2019-04-07T17:51:05.298Z,66.80
2019-04-07T17:54:07.915Z,67.70
2019-04-07T17:57:03.797Z,69.10
2019-04-07T17:59:55.658Z,70.40
2019-04-07T18:02:47.638Z,71.40
2019-04-07T18:05:23.511Z,72.70
2019-04-07T18:08:21.895Z,73.10
2019-04-07T18:11:02.330Z,73.50
2019-04-07T18:13:50.856Z,74.40
2019-04-07T18:16:36.352Z,75.00
2019-04-07T18:19:14.089Z,76.20
2019-04-07T18:21:53.733Z,76.50
2019-04-07T18:24:34.094Z,77.30
2019-04-07T18:27:27.116Z,77.90
2019-04-07T18:30:33.417Z,78.40
2019-04-07T18:33:09.888Z,78.90
2019-04-07T18:35:56.774Z,78.90
2019-04-07T18:38:49.655Z,78.90
2019-04-07T18:41:34.101Z,79.10
2019-04-07T18:44:18.329Z,79.50
2019-04-07T18:47:15.252Z,79.60
2019-04-07T18:50:12.111Z,80.20
2019-04-07T18:52:53.230Z,80.50
2019-04-07T18:55:54.263Z,80.90
2019-04-07T18:58:39.867Z,80.80
2019-04-07T19:01:29.855Z,81.10
2019-04-07T19:04:17.273Z,81.20
2019-04-07T19:06:50.038Z,81.50
2019-04-07T19:10:06.249Z,82.10
2019-04-07T19:13:02.591Z,82.10
2019-04-07T19:15:40.819Z,82.80
2019-04-07T19:18:27.138Z,84.30
2019-04-07T19:21:09.897Z,85.20
2019-04-07T19:24:04.559Z,85.60
2019-04-07T19:26:53.919Z,86.30
2019-04-07T19:29:41.264Z,86.80
2019-04-07T19:32:20.908Z,87.00
2019-04-07T19:35:11.646Z,87.10
2019-04-07T19:38:04.831Z,87.70
2019-04-07T19:40:40.190Z,87.80
2019-04-07T19:43:28.287Z,87.50
2019-04-07T19:46:12.666Z,87.70
2019-04-07T19:48:47.050Z,87.30
2019-04-07T19:51:30.608Z,87.40
2019-04-07T19:54:07.108Z,87.30
2019-04-07T19:56:54.861Z,87.50
2019-04-07T19:59:30.834Z,87.40
2019-04-07T20:02:20.751Z,87.40
2019-04-07T20:05:10.538Z,87.40
2019-04-07T20:08:02.556Z,87.20
2019-04-07T20:10:39.527Z,86.90
2019-04-07T20:13:29.256Z,86.70
2019-04-07T20:16:02.600Z,86.70
2019-04-07T20:18:54.673Z,86.50
2019-04-07T20:21:53.961Z,86.60
2019-04-07T20:24:40.131Z,86.80
2019-04-07T20:27:29.421Z,86.80
2019-04-07T20:30:16.324Z,86.60
2019-04-07T20:32:56.773Z,86.80
2019-04-07T20:35:33.637Z,86.70
2019-04-07T20:38:25.604Z,87.00
2019-04-07T20:41:12.029Z,87.60
2019-04-07T20:43:55.757Z,87.60
2019-04-07T20:46:41.740Z,87.70
2019-04-07T20:49:35.716Z,88.00
2019-04-07T20:52:24.715Z,88.40
2019-04-07T20:55:09.795Z,88.60
2019-04-07T20:58:10.210Z,89.00
2019-04-07T21:00:37.161Z,89.40
2019-04-07T21:03:27.978Z,89.90
2019-04-07T21:06:14.687Z,90.10
2019-04-07T21:09:03.612Z,90.30
2019-04-07T21:11:56.792Z,90.30
2019-04-07T21:14:43.989Z,90.50
2019-04-07T21:17:31.039Z,90.50
2019-04-07T21:20:11.934Z,90.60
2019-04-07T21:23:16.145Z,90.80
2019-04-07T21:26:09.998Z,90.90
2019-04-07T21:28:48.381Z,90.90
2019-04-07T21:31:34.501Z,91.10
2019-04-07T21:34:21.338Z,91.10
2019-04-07T21:37:20.239Z,91.10
2019-04-07T21:39:55.555Z,91.10
2019-04-07T21:42:44.407Z,91.20
2019-04-07T21:45:41.446Z,91.30
2019-04-07T21:48:25.574Z,91.30
2019-04-07T21:51:15.318Z,91.40
2019-04-07T21:54:04.201Z,91.50
2019-04-07T21:56:43.139Z,91.60
2019-04-07T21:59:37.531Z,91.50
2019-04-07T22:02:12.159Z,91.60
2019-04-07T22:04:52.870Z,91.60
2019-04-07T22:07:45.383Z,91.60
2019-04-07T22:10:13.763Z,91.70
2019-04-07T22:12:42.072Z,91.70
2019-04-07T22:15:12.791Z,91.60
2019-04-07T22:17:39.699Z,91.60
2019-04-07T22:20:08.538Z,91.50
2019-04-07T22:22:35.917Z,91.50
2019-04-07T22:25:06.305Z,91.60
2019-04-07T22:27:32.944Z,91.60
2019-04-07T22:30:02.193Z,91.60
2019-04-07T22:32:29.611Z,91.60
2019-04-07T22:34:57.906Z,91.50
2019-04-07T22:37:26.125Z,91.60
2019-04-07T22:39:53.517Z,91.60
2019-04-07T22:42:20.904Z,91.60
2019-04-07T22:44:51.959Z,91.50
2019-04-07T22:47:19.758Z,91.50
2019-04-07T22:49:46.787Z,91.50
2019-04-07T22:52:17.587Z,91.60
2019-04-07T22:54:44.258Z,91.80
2019-04-07T22:57:14.192Z,91.80
2019-04-07T22:59:41.806Z,91.80
2019-04-07T23:02:09.251Z,91.80
2019-04-07T23:04:36.655Z,91.70
2019-04-07T23:07:04.355Z,91.70
2019-04-07T23:09:31.766Z,91.80
2019-04-07T23:12:01.748Z,91.70
2019-04-07T23:14:28.684Z,91.70
2019-04-07T23:16:56.284Z,91.60
2019-04-07T23:19:23.694Z,91.80
2019-04-07T23:21:51.342Z,91.80
2019-04-07T23:24:19.247Z,91.80
2019-04-07T23:26:46.765Z,91.80
2019-04-07T23:29:14.279Z,91.80
2019-04-07T23:31:41.731Z,91.90
2019-04-07T23:34:09.127Z,91.90
2019-04-07T23:36:36.555Z,92.00
2019-04-07T23:39:05.744Z,92.10
2019-04-07T23:41:33.991Z,92.10
2019-04-07T23:44:01.489Z,92.00
2019-04-07T23:46:29.700Z,92.00
2019-04-07T23:48:58.061Z,92.10
2019-04-07T23:51:26.722Z,92.10
2019-04-07T23:54:11.139Z,91.90
2019-04-07T23:56:39.600Z,92.00
2019-04-07T23:59:07.031Z,92.00
